Portada
METAR-TAF:

METAR-TAF

Aeroports :

Oban, Escòcia

latitud: 56-27-49N, longitud: 5-24-00W, altitud: 7 m

Observació

L'informe es va fer fa 21 minuts, a les 09:50 UTC
Vent 5 kt del Est/Sud-Est
Temperatura -3°C
Humitat 100%
Pressió 982 hPa
Visibilitat 10 km o més
Escasses núvols a una alçada de 2000 ft

METAR: EGEO 200950Z 12005KT 9999 FEW020 M03/M03 Q0982

Hora: 10:11 (10:11 UTC)


TAF: manca

Observacions i pronòstics meteorològics de més de 4000 aeroports (METAR i TAF).

Les estacions disponibles són els punts grocs i vermells al mapa.

Posi el ratolí al punt desitjat per veure el nom de l'estació.

Feu clic per veure les observacions i els pronòstics meteorològics.

Per canviar el mapa: feu clic els botons verds amb una creu de color negre per apropar; al botó verd amb un guió per allunyar la imatge; o en les fletxes verdes per a mapes adjacents.


METAR-TAF: